Time;durP1;ratioP1;P1;durP2;ratioP2;P2;SDS_P1;SDS_P2;PMS_P1;PMS_P2;Temp;Humidity;BMP_temperature;BMP_pressure;BME280_temperature;BME280_humidity;BME280_pressure;Samples;Min_cycle;Max_cycle;Signal;HPM_P1;HPM_P2
2021/07/28 00:01:20;;;;;;;5.30;3.47;;;22.50;74.00;;;;;;2214375;57;21793;-71
2021/07/28 00:03:50;;;;;;;5.20;3.12;;;22.50;73.90;;;;;;2191634;57;21696;-68
2021/07/28 00:06:26;;;;;;;5.43;3.25;;;22.50;74.10;;;;;;2424046;57;20987;-67
2021/07/28 00:08:53;;;;;;;5.78;3.65;;;22.40;74.10;;;;;;2207785;57;21021;-67
2021/07/28 00:11:19;;;;;;;5.37;3.50;;;22.40;74.00;;;;;;2391028;57;21437;-68
2021/07/28 00:13:46;;;;;;;5.07;3.42;;;22.50;74.00;;;;;;2181730;58;21004;-72
2021/07/28 00:16:13;;;;;;;5.00;3.40;;;22.40;73.90;;;;;;2200456;57;21621;-69
2021/07/28 00:19:29;;;;;;;4.72;3.05;;;22.40;73.90;;;;;;2218876;57;20985;-67
2021/07/28 00:24:40;;;;;;;5.30;3.17;;;22.40;73.60;;;;;;2175163;57;21052;-67
2021/07/28 00:27:07;;;;;;;5.55;3.25;;;22.30;73.40;;;;;;2426671;57;21350;-67
2021/07/28 00:29:36;;;;;;;4.57;3.15;;;22.30;73.40;;;;;;2215243;57;20944;-67
2021/07/28 00:32:03;;;;;;;4.93;3.25;;;22.30;73.40;;;;;;2230854;57;20986;-67
2021/07/28 00:34:29;;;;;;;4.95;3.53;;;22.20;73.30;;;;;;2214158;57;21048;-69
2021/07/28 00:37:04;;;;;;;4.80;3.22;;;22.20;73.30;;;;;;2415434;57;21886;-68
2021/07/28 00:39:31;;;;;;;5.50;3.22;;;22.20;73.40;;;;;;2184463;57;21446;-71
2021/07/28 00:41:57;;;;;;;5.07;3.20;;;22.10;73.40;;;;;;2206911;57;21982;-66
2021/07/28 00:44:24;;;;;;;4.62;3.00;;;22.10;73.50;;;;;;2207173;57;20995;-68
2021/07/28 00:46:50;;;;;;;5.55;3.28;;;22.10;73.50;;;;;;2381091;57;21038;-67
2021/07/28 00:49:17;;;;;;;7.68;3.03;;;22.10;73.70;;;;;;2208336;57;21024;-70
2021/07/28 00:51:44;;;;;;;4.65;3.22;;;22.00;73.70;;;;;;2212100;57;21807;-68
2021/07/28 00:54:10;;;;;;;5.57;3.12;;;22.00;73.80;;;;;;2190995;58;21090;-67
2021/07/28 00:56:37;;;;;;;6.07;3.28;;;22.00;73.80;;;;;;2197433;57;20980;-69
2021/07/28 00:59:03;;;;;;;5.07;3.55;;;22.00;74.00;;;;;;2211052;57;20936;-68
2021/07/28 01:01:30;;;;;;;5.12;3.47;;;21.90;74.00;;;;;;2219422;57;21045;-69
2021/07/28 01:03:56;;;;;;;6.05;3.78;;;22.00;74.30;;;;;;2202324;57;20992;-68
2021/07/28 01:06:23;;;;;;;5.40;3.40;;;21.90;74.30;;;;;;2213523;57;21244;-67
2021/07/28 01:08:49;;;;;;;5.47;3.53;;;21.90;74.30;;;;;;2202723;57;21003;-67
2021/07/28 01:11:23;;;;;;;5.10;3.37;;;21.90;74.40;;;;;;2199012;57;20992;-67
2021/07/28 01:13:49;;;;;;;4.35;2.70;;;21.90;74.30;;;;;;2179347;58;21531;-71
2021/07/28 01:16:20;;;;;;;6.10;3.08;;;21.90;74.60;;;;;;2182473;58;21028;-67
2021/07/28 01:18:46;;;;;;;4.50;2.95;;;21.90;74.60;;;;;;2207681;57;21124;-65
2021/07/28 01:21:12;;;;;;;5.00;2.97;;;21.90;74.70;;;;;;2213866;57;20995;-67
2021/07/28 01:23:39;;;;;;;5.62;3.25;;;21.90;74.90;;;;;;2403382;57;20989;-67
2021/07/28 01:26:06;;;;;;;3.92;2.45;;;21.90;74.90;;;;;;2212606;57;21092;-69
2021/07/28 01:28:35;;;;;;;5.22;3.12;;;21.90;74.90;;;;;;2200255;57;21001;-67
2021/07/28 01:31:10;;;;;;;5.37;2.87;;;22.00;74.90;;;;;;2277511;58;21348;-68
2021/07/28 01:33:37;;;;;;;5.32;2.60;;;22.00;74.70;;;;;;2175258;57;21102;-68
2021/07/28 01:36:05;;;;;;;4.87;2.70;;;22.00;74.80;;;;;;2199621;57;21043;-67
2021/07/28 01:38:31;;;;;;;4.10;2.70;;;21.90;74.70;;;;;;2278560;57;20974;-69
2021/07/28 01:40:58;;;;;;;6.30;3.22;;;21.90;74.70;;;;;;2253138;57;21014;-72
2021/07/28 01:43:27;;;;;;;5.18;3.30;;;22.00;74.70;;;;;;2192870;58;20974;-69
2021/07/28 01:45:56;;;;;;;5.93;3.37;;;22.00;74.60;;;;;;2207345;57;20987;-67
2021/07/28 01:48:23;;;;;;;6.47;3.47;;;21.90;74.50;;;;;;2201236;57;21047;-67
2021/07/28 01:50:49;;;;;;;5.25;3.20;;;21.90;74.50;;;;;;2194237;57;20991;-71
2021/07/28 01:53:19;;;;;;;5.05;3.20;;;21.90;74.50;;;;;;2199828;57;21028;-68
2021/07/28 01:55:49;;;;;;;5.28;3.20;;;21.90;74.50;;;;;;2214788;57;21072;-67
2021/07/28 01:58:18;;;;;;;5.07;3.33;;;21.90;74.50;;;;;;2216893;57;20975;-73
2021/07/28 02:00:44;;;;;;;5.28;3.17;;;21.90;74.40;;;;;;2206971;57;21003;-67
2021/07/28 02:03:10;;;;;;;5.15;3.45;;;21.90;74.40;;;;;;2187719;57;21572;-73
2021/07/28 02:05:38;;;;;;;5.18;3.25;;;21.90;74.40;;;;;;2198265;57;21048;-68
2021/07/28 02:08:06;;;;;;;4.68;3.12;;;21.90;74.40;;;;;;2222618;57;21468;-71
2021/07/28 02:10:40;;;;;;;5.05;3.30;;;21.80;74.40;;;;;;2178103;58;21555;-67
2021/07/28 02:13:06;;;;;;;4.78;3.12;;;21.80;74.30;;;;;;2184956;57;20999;-71
2021/07/28 02:15:32;;;;;;;5.65;3.47;;;21.80;74.30;;;;;;2397092;57;21026;-67
2021/07/28 02:17:59;;;;;;;5.35;3.42;;;21.80;74.30;;;;;;2209656;57;21071;-66
2021/07/28 02:20:26;;;;;;;5.45;3.40;;;21.70;74.20;;;;;;2199425;57;21060;-66
2021/07/28 02:22:53;;;;;;;5.07;3.30;;;21.80;74.30;;;;;;2214047;57;20988;-69
2021/07/28 02:25:19;;;;;;;6.15;2.95;;;21.70;74.30;;;;;;2214015;57;21044;-68
2021/07/28 02:27:45;;;;;;;5.55;3.03;;;21.70;74.30;;;;;;2236117;57;20974;-68
2021/07/28 02:30:12;;;;;;;4.60;2.90;;;21.70;74.30;;;;;;2201231;57;21012;-66
2021/07/28 02:32:39;;;;;;;4.15;2.58;;;21.60;74.20;;;;;;2212253;57;21029;-69
2021/07/28 02:35:09;;;;;;;5.82;3.50;;;21.60;74.20;;;;;;2217360;57;21038;-66
2021/07/28 02:37:36;;;;;;;5.55;3.33;;;21.60;74.00;;;;;;2427437;57;21015;-69
2021/07/28 02:40:03;;;;;;;5.57;3.70;;;21.60;74.20;;;;;;2426327;57;20936;-71
2021/07/28 02:42:30;;;;;;;4.28;3.00;;;21.60;74.20;;;;;;2288334;57;21010;-66
2021/07/28 02:44:56;;;;;;;4.47;2.95;;;21.50;74.20;;;;;;2280037;57;21051;-67
2021/07/28 02:47:22;;;;;;;5.37;3.10;;;21.50;74.20;;;;;;2215623;57;21876;-69
2021/07/28 02:49:49;;;;;;;4.68;2.67;;;21.50;74.20;;;;;;2202372;57;21092;-66
2021/07/28 02:52:15;;;;;;;6.22;3.30;;;21.50;74.20;;;;;;2204233;57;20990;-67
2021/07/28 02:54:42;;;;;;;4.37;2.72;;;21.40;74.00;;;;;;2293785;57;20956;-66
2021/07/28 02:57:08;;;;;;;5.90;3.55;;;21.40;74.00;;;;;;2199798;57;21028;-67
2021/07/28 02:59:35;;;;;;;5.70;2.95;;;21.40;74.10;;;;;;2192408;57;21004;-67
2021/07/28 03:02:01;;;;;;;4.45;2.87;;;21.40;74.00;;;;;;2211978;57;20955;-70
2021/07/28 03:04:28;;;;;;;4.65;3.15;;;21.30;74.00;;;;;;2219142;57;21013;-67
2021/07/28 03:06:55;;;;;;;5.10;2.87;;;21.30;74.00;;;;;;2207936;57;20964;-68
2021/07/28 03:09:21;;;;;;;5.28;3.10;;;21.30;74.10;;;;;;2402752;57;20972;-71
2021/07/28 03:11:48;;;;;;;4.50;2.45;;;21.30;74.10;;;;;;2192400;58;20962;-67
2021/07/28 03:14:14;;;;;;;4.25;2.58;;;21.30;74.20;;;;;;2203528;57;20953;-72
2021/07/28 03:16:40;;;;;;;4.22;2.72;;;21.20;74.10;;;;;;2331577;57;21062;-71
2021/07/28 03:19:07;;;;;;;4.25;2.53;;;21.20;74.20;;;;;;2204716;57;21052;-67
2021/07/28 03:21:34;;;;;;;5.55;3.40;;;21.20;74.10;;;;;;2137960;57;2767919;-67
2021/07/28 03:24:00;;;;;;;4.90;2.67;;;21.20;74.20;;;;;;2195374;57;21024;-67
2021/07/28 03:26:27;;;;;;;4.12;2.53;;;21.10;74.10;;;;;;2398086;57;21015;-67
2021/07/28 03:28:53;;;;;;;4.47;2.90;;;21.10;74.10;;;;;;2207573;57;20966;-72
2021/07/28 03:31:20;;;;;;;5.07;2.90;;;21.10;74.10;;;;;;2190713;57;21047;-67
2021/07/28 03:33:46;;;;;;;4.35;2.67;;;21.10;74.20;;;;;;2398588;57;21056;-68
2021/07/28 03:36:13;;;;;;;4.28;2.75;;;21.00;74.10;;;;;;2195623;57;21014;-67
2021/07/28 03:38:39;;;;;;;3.90;2.47;;;21.00;74.10;;;;;;2209041;57;21036;-66
2021/07/28 03:41:05;;;;;;;4.72;2.58;;;21.00;74.20;;;;;;2216791;57;20948;-67
2021/07/28 03:43:32;;;;;;;4.10;2.83;;;21.00;74.20;;;;;;2404602;57;21528;-66
2021/07/28 03:45:58;;;;;;;4.97;3.03;;;21.00;74.30;;;;;;2397326;57;21566;-66
2021/07/28 03:48:30;;;;;;;4.78;3.05;;;20.90;74.30;;;;;;2200583;57;21032;-66
2021/07/28 03:50:58;;;;;;;4.80;3.03;;;20.90;74.40;;;;;;2209945;57;21076;-66
2021/07/28 03:53:25;;;;;;;5.45;2.80;;;20.90;74.50;;;;;;2213762;57;21044;-67
2021/07/28 03:55:54;;;;;;;4.30;2.60;;;20.90;74.50;;;;;;2323892;57;20984;-72
2021/07/28 03:58:20;;;;;;;4.70;2.95;;;20.90;74.60;;;;;;2225889;57;21027;-67
2021/07/28 04:00:50;;;;;;;8.13;3.03;;;20.90;74.60;;;;;;2218725;57;20971;-71
2021/07/28 04:03:16;;;;;;;4.45;2.62;;;20.90;74.70;;;;;;2423508;57;21433;-69
2021/07/28 04:05:43;;;;;;;3.50;2.10;;;20.90;74.70;;;;;;2211536;57;21528;-71
2021/07/28 04:08:09;;;;;;;4.07;2.50;;;20.90;74.70;;;;;;2299555;57;21014;-67
2021/07/28 04:10:37;;;;;;;4.50;2.83;;;20.90;74.80;;;;;;2215022;57;21040;-66
2021/07/28 04:13:04;;;;;;;5.45;2.85;;;20.90;74.80;;;;;;2205813;57;20968;-67
2021/07/28 04:15:30;;;;;;;4.78;3.17;;;20.90;74.80;;;;;;2363956;57;21744;-70
2021/07/28 04:17:57;;;;;;;4.28;2.92;;;20.90;74.80;;;;;;2189712;57;21010;-69
2021/07/28 04:20:23;;;;;;;4.95;2.78;;;20.90;74.90;;;;;;2406693;57;20980;-67
2021/07/28 04:22:52;;;;;;;5.90;3.55;;;20.90;74.90;;;;;;2213791;57;21916;-66
2021/07/28 04:25:19;;;;;;;4.35;2.70;;;20.90;74.90;;;;;;2200139;57;21057;-71
2021/07/28 04:27:47;;;;;;;4.40;2.55;;;20.90;75.00;;;;;;2374151;57;21080;-66
2021/07/28 04:30:14;;;;;;;3.87;2.47;;;20.90;75.00;;;;;;2227404;57;20986;-66
2021/07/28 04:32:43;;;;;;;4.03;2.25;;;20.90;75.00;;;;;;2294506;57;21069;-69
2021/07/28 04:35:10;;;;;;;5.05;2.75;;;20.90;75.00;;;;;;2200879;57;21041;-67
2021/07/28 04:37:38;;;;;;;4.65;2.97;;;20.90;75.00;;;;;;2248110;57;21022;-67
2021/07/28 04:40:06;;;;;;;4.90;3.35;;;20.90;75.10;;;;;;2204953;57;21048;-67
2021/07/28 04:42:36;;;;;;;7.07;4.00;;;20.90;75.00;;;;;;2425767;57;21021;-67
2021/07/28 04:45:07;;;;;;;5.90;3.30;;;20.90;75.00;;;;;;2373015;57;21023;-67
2021/07/28 04:47:33;;;;;;;4.30;2.80;;;20.90;75.00;;;;;;2180316;58;21107;-66
2021/07/28 04:50:00;;;;;;;5.18;3.05;;;20.90;75.20;;;;;;2201144;57;21060;-70
2021/07/28 04:52:26;;;;;;;5.47;3.55;;;20.90;75.20;;;;;;2201588;57;20987;-69
2021/07/28 04:54:53;;;;;;;4.75;3.08;;;20.90;75.20;;;;;;2212893;57;20992;-71
2021/07/28 04:57:21;;;;;;;4.40;2.97;;;21.00;75.30;;;;;;2194580;57;21088;-67
2021/07/28 04:59:48;;;;;;;4.80;2.80;;;20.90;75.30;;;;;;2171681;58;21016;-67
2021/07/28 05:02:14;;;;;;;6.45;3.80;;;21.00;75.40;;;;;;2425349;57;21051;-68
2021/07/28 05:04:42;;;;;;;4.78;3.03;;;21.00;75.40;;;;;;2214524;57;21079;-68
2021/07/28 05:07:13;;;;;;;5.30;3.55;;;21.00;75.40;;;;;;2426197;57;20972;-71
2021/07/28 05:09:42;;;;;;;5.15;3.20;;;21.00;75.20;;;;;;2197695;57;22454;-68
2021/07/28 05:12:08;;;;;;;6.10;3.28;;;21.00;75.20;;;;;;2397437;57;21035;-66
2021/07/28 05:14:35;;;;;;;5.78;3.50;;;21.00;75.30;;;;;;2178279;58;21338;-68
2021/07/28 05:17:01;;;;;;;5.30;3.33;;;21.00;75.30;;;;;;2241142;57;20937;-67
2021/07/28 05:19:29;;;;;;;4.80;3.25;;;21.00;75.30;;;;;;2412060;57;20988;-66
2021/07/28 05:21:55;;;;;;;5.05;3.30;;;21.10;75.40;;;;;;2396323;57;21051;-70
2021/07/28 05:24:24;;;;;;;4.40;3.08;;;21.10;75.50;;;;;;2216226;57;20994;-67
2021/07/28 05:26:51;;;;;;;4.57;2.65;;;21.10;75.50;;;;;;2385703;57;20995;-67
2021/07/28 05:29:18;;;;;;;5.43;2.95;;;21.10;75.50;;;;;;2212824;57;20971;-67
2021/07/28 05:31:46;;;;;;;5.40;2.95;;;21.10;75.50;;;;;;2425616;57;21381;-67
2021/07/28 05:34:13;;;;;;;4.95;3.05;;;21.20;75.70;;;;;;2205803;57;21137;-69
2021/07/28 05:36:39;;;;;;;5.32;2.83;;;21.20;75.70;;;;;;2341369;57;21036;-67
2021/07/28 05:39:05;;;;;;;4.75;2.75;;;21.20;75.60;;;;;;2180783;58;20974;-67
2021/07/28 05:41:32;;;;;;;3.92;2.53;;;21.20;75.60;;;;;;2171614;58;20987;-67
2021/07/28 05:43:58;;;;;;;4.32;2.67;;;21.20;75.60;;;;;;2167208;58;20999;-67
2021/07/28 05:46:25;;;;;;;4.80;3.17;;;21.30;75.60;;;;;;2390260;57;21047;-67
2021/07/28 05:48:52;;;;;;;4.15;2.78;;;21.30;75.60;;;;;;2201058;57;21028;-71
2021/07/28 05:51:19;;;;;;;4.68;2.90;;;21.30;75.40;;;;;;2408351;57;21050;-67
2021/07/28 05:53:45;;;;;;;5.05;3.12;;;21.30;75.50;;;;;;2185640;57;20974;-68
2021/07/28 05:56:12;;;;;;;5.12;2.97;;;21.30;75.50;;;;;;2181895;57;21066;-67
2021/07/28 05:58:39;;;;;;;5.07;2.87;;;21.40;75.50;;;;;;2188743;57;21110;-68
2021/07/28 06:01:05;;;;;;;4.97;3.35;;;21.40;75.60;;;;;;2382068;57;21067;-70
2021/07/28 06:03:32;;;;;;;5.40;3.40;;;21.40;75.50;;;;;;2179487;58;20956;-67
2021/07/28 06:05:59;;;;;;;4.32;3.08;;;21.40;75.30;;;;;;2385134;57;20983;-71
2021/07/28 06:08:25;;;;;;;4.43;3.25;;;21.40;75.30;;;;;;2205798;57;21096;-69
2021/07/28 06:10:52;;;;;;;5.18;2.92;;;21.50;75.20;;;;;;2269064;57;20935;-67
2021/07/28 06:13:18;;;;;;;4.97;3.00;;;21.50;75.20;;;;;;2186559;58;21026;-69
2021/07/28 06:15:47;;;;;;;5.37;3.62;;;21.50;75.20;;;;;;2395773;57;21051;-70
2021/07/28 06:18:15;;;;;;;5.80;2.95;;;21.50;75.90;;;;;;2194474;57;21468;-72
2021/07/28 06:20:42;;;;;;;6.70;3.10;;;21.50;75.20;;;;;;2407815;57;21039;-68
2021/07/28 06:23:11;;;;;;;4.35;3.03;;;21.50;75.20;;;;;;2185584;58;20987;-69
2021/07/28 06:25:38;;;;;;;4.62;2.78;;;21.60;75.20;;;;;;2174387;58;21075;-67
2021/07/28 06:28:05;;;;;;;4.50;2.65;;;21.60;75.30;;;;;;2219845;57;21250;-72
2021/07/28 06:30:32;;;;;;;4.62;2.78;;;21.60;75.20;;;;;;2401104;57;20982;-67
2021/07/28 06:32:58;;;;;;;5.50;3.22;;;21.60;75.10;;;;;;2177027;57;21022;-70
2021/07/28 06:35:24;;;;;;;6.72;3.20;;;21.60;75.00;;;;;;2381957;57;21118;-68
2021/07/28 06:37:52;;;;;;;4.87;3.12;;;21.70;75.10;;;;;;2188773;57;21012;-68
2021/07/28 06:40:18;;;;;;;6.75;3.47;;;21.70;75.00;;;;;;2175554;58;22061;-68
2021/07/28 06:42:45;;;;;;;5.00;3.28;;;21.70;74.90;;;;;;2390099;57;21024;-72
2021/07/28 06:45:12;;;;;;;4.72;3.08;;;21.70;74.90;;;;;;2265172;57;20975;-72
2021/07/28 06:47:39;;;;;;;5.35;3.37;;;21.70;75.00;;;;;;2186394;58;21031;-67
2021/07/28 06:50:07;;;;;;;4.82;3.17;;;21.70;75.00;;;;;;2366198;57;21017;-67
2021/07/28 06:52:33;;;;;;;5.97;3.58;;;21.70;74.90;;;;;;2167826;58;21515;-67
2021/07/28 06:55:02;;;;;;;5.57;3.55;;;21.80;75.10;;;;;;2376472;57;21015;-68
2021/07/28 06:57:32;;;;;;;12.32;4.50;;;21.80;74.90;;;;;;2392718;57;20974;-67
2021/07/28 06:59:58;;;;;;;5.28;3.53;;;21.80;75.10;;;;;;2396134;57;20986;-68
2021/07/28 07:02:25;;;;;;;4.82;3.35;;;21.80;75.10;;;;;;2182590;57;20980;-67
2021/07/28 07:04:51;;;;;;;5.47;3.78;;;21.90;75.20;;;;;;2190719;57;21043;-68
2021/07/28 07:07:18;;;;;;;5.40;3.42;;;21.90;75.20;;;;;;2290282;57;21934;-68
2021/07/28 07:09:44;;;;;;;6.18;3.42;;;21.90;75.30;;;;;;2417923;57;20996;-67
2021/07/28 07:12:14;;;;;;;6.37;3.60;;;22.00;76.00;;;;;;2192857;57;21024;-67
2021/07/28 07:14:42;;;;;;;5.18;3.50;;;22.00;75.20;;;;;;2392017;57;20984;-68
2021/07/28 07:17:09;;;;;;;5.55;3.78;;;22.00;75.30;;;;;;2173177;58;20971;-68
2021/07/28 07:19:35;;;;;;;4.90;2.95;;;22.10;75.20;;;;;;2393572;57;21476;-68
2021/07/28 07:22:03;;;;;;;6.43;3.40;;;22.10;75.10;;;;;;2189967;57;21099;-68
2021/07/28 07:24:30;;;;;;;5.47;3.47;;;22.20;75.10;;;;;;2214699;57;20964;-68
2021/07/28 07:26:57;;;;;;;4.18;2.78;;;22.10;75.10;;;;;;2170286;58;20947;-67
2021/07/28 07:29:23;;;;;;;4.50;2.95;;;22.20;75.10;;;;;;2191355;57;21591;-68
2021/07/28 07:31:50;;;;;;;5.68;3.60;;;22.20;75.20;;;;;;2209053;57;20919;-69
2021/07/28 07:34:16;;;;;;;5.07;3.50;;;22.30;75.10;;;;;;2407288;57;21549;-71
2021/07/28 07:36:44;;;;;;;4.68;3.15;;;22.30;75.00;;;;;;2192361;57;21871;-68
2021/07/28 07:39:10;;;;;;;4.93;3.15;;;22.30;75.00;;;;;;2394824;57;21023;-69
2021/07/28 07:41:39;;;;;;;5.20;3.17;;;22.40;75.10;;;;;;2185827;58;21023;-69
2021/07/28 07:44:05;;;;;;;5.07;3.78;;;22.40;75.20;;;;;;2181418;58;21408;-68
2021/07/28 07:46:32;;;;;;;4.97;3.03;;;22.40;75.10;;;;;;2167033;58;20979;-68
2021/07/28 07:48:59;;;;;;;4.35;2.87;;;22.50;75.10;;;;;;2329582;57;20971;-70
2021/07/28 07:51:28;;;;;;;5.30;3.35;;;22.50;75.10;;;;;;2168805;58;21052;-69
2021/07/28 07:53:54;;;;;;;4.68;3.15;;;22.60;75.60;;;;;;2373166;57;21755;-72
2021/07/28 07:56:20;;;;;;;5.03;3.33;;;22.60;74.80;;;;;;2177911;58;21023;-67
2021/07/28 07:58:47;;;;;;;6.57;3.90;;;22.60;74.60;;;;;;2367649;57;20954;-69
2021/07/28 08:01:13;;;;;;;5.72;3.67;;;22.70;74.40;;;;;;2180514;58;20990;-68
2021/07/28 08:03:40;;;;;;;6.18;3.78;;;22.70;74.50;;;;;;2333342;57;21449;-69
2021/07/28 08:06:07;;;;;;;5.12;3.20;;;22.70;74.30;;;;;;2193075;57;20947;-67
2021/07/28 08:08:33;;;;;;;4.75;3.15;;;22.80;74.50;;;;;;2188403;58;21023;-68
2021/07/28 08:11:00;;;;;;;5.65;3.67;;;22.80;74.50;;;;;;2189438;57;21431;-69
2021/07/28 08:13:27;;;;;;;4.72;3.33;;;22.90;74.40;;;;;;2193641;57;21039;-68
2021/07/28 08:15:54;;;;;;;4.97;3.47;;;22.90;74.30;;;;;;2179392;57;21083;-68
2021/07/28 08:18:23;;;;;;;5.47;3.62;;;23.00;74.20;;;;;;2400120;57;20982;-70
2021/07/28 08:20:50;;;;;;;4.72;2.97;;;23.00;73.80;;;;;;2390322;57;20991;-68
2021/07/28 08:23:16;;;;;;;5.62;3.55;;;23.00;73.70;;;;;;2238864;57;21019;-68
2021/07/28 08:25:43;;;;;;;6.20;4.30;;;23.10;73.70;;;;;;2335972;57;21830;-68
2021/07/28 08:28:11;;;;;;;4.82;3.45;;;23.10;73.40;;;;;;2373500;57;21323;-68
2021/07/28 08:30:39;;;;;;;5.57;3.53;;;23.10;73.10;;;;;;2242053;57;21645;-71
2021/07/28 08:33:06;;;;;;;6.85;3.80;;;23.10;73.00;;;;;;2412006;57;21498;-69
2021/07/28 08:35:32;;;;;;;4.72;3.08;;;23.20;72.90;;;;;;2291074;57;21033;-70
2021/07/28 08:37:59;;;;;;;5.18;3.17;;;23.20;73.00;;;;;;2180864;58;21468;-68
2021/07/28 08:40:26;;;;;;;4.95;3.30;;;23.20;73.00;;;;;;2219024;57;21250;-67
2021/07/28 08:43:29;;;;;;;5.32;2.92;;;23.20;73.00;;;;;;2188879;58;20978;-70
2021/07/28 08:45:59;;;;;;;5.35;3.12;;;23.30;72.30;;;;;;2167736;58;20968;-69
2021/07/28 08:48:27;;;;;;;6.43;3.33;;;23.30;72.30;;;;;;2268833;57;20999;-71
2021/07/28 08:50:53;;;;;;;5.70;3.47;;;23.30;72.30;;;;;;2173714;58;21477;-71
2021/07/28 08:53:21;;;;;;;4.47;3.20;;;23.40;71.80;;;;;;2189809;57;20991;-68
2021/07/28 08:55:47;;;;;;;4.62;2.87;;;23.40;71.90;;;;;;2178551;57;20979;-68
2021/07/28 08:58:17;;;;;;;4.97;3.12;;;23.40;71.70;;;;;;2168395;58;21829;-69
2021/07/28 09:00:46;;;;;;;5.45;3.05;;;23.40;71.60;;;;;;2168240;58;20971;-68
2021/07/28 09:03:14;;;;;;;5.47;3.45;;;23.40;71.20;;;;;;2318742;57;21034;-69
2021/07/28 09:05:41;;;;;;;5.90;3.35;;;23.40;71.30;;;;;;2170937;58;21496;-70
2021/07/28 09:08:31;;;;;;;4.93;3.28;;;23.40;71.10;;;;;;2167776;58;21020;-71
2021/07/28 09:11:03;;;;;;;4.50;2.80;;;23.40;70.00;;;;;;2266708;57;21954;-69
2021/07/28 09:13:40;;;;;;;5.72;3.20;;;23.40;71.40;;;;;;2180654;58;21452;-69
2021/07/28 09:16:18;;;;;;;5.45;3.22;;;23.40;70.70;;;;;;2187723;58;21100;-73
2021/07/28 09:18:48;;;;;;;5.43;3.22;;;23.50;71.40;;;;;;2171869;58;21412;-68
2021/07/28 09:21:28;;;;;;;5.60;3.17;;;23.50;71.30;;;;;;2190289;57;20982;-68
2021/07/28 09:24:14;;;;;;;5.45;3.00;;;23.50;70.10;;;;;;2169293;57;20983;-69
2021/07/28 09:26:51;;;;;;;5.05;3.15;;;23.60;70.20;;;;;;2243179;57;21052;-70
2021/07/28 09:29:27;;;;;;;4.55;3.28;;;23.60;70.50;;;;;;2167953;58;20955;-69
2021/07/28 09:32:07;;;;;;;4.10;2.65;;;23.60;70.50;;;;;;2167874;58;20992;-71
2021/07/28 09:34:37;;;;;;;5.00;2.87;;;23.60;69.90;;;;;;2167991;58;20976;-70
2021/07/28 09:37:17;;;;;;;4.75;2.90;;;23.60;70.70;;;;;;2169789;57;21116;-70
2021/07/28 09:39:45;;;;;;;5.50;2.83;;;23.70;71.30;;;;;;2167981;58;20972;-69
2021/07/28 09:42:25;;;;;;;4.30;3.00;;;23.70;71.70;;;;;;2167818;58;21541;-68
2021/07/28 09:44:55;;;;;;;5.37;3.60;;;23.80;71.20;;;;;;2180461;58;21465;-70
2021/07/28 09:47:22;;;;;;;6.00;3.22;;;23.90;70.40;;;;;;2185416;58;21010;-69
2021/07/28 09:50:12;;;;;;;7.00;3.08;;;24.00;71.40;;;;;;2173952;58;20972;-71
2021/07/28 09:52:38;;;;;;;4.37;3.03;;;24.10;71.30;;;;;;2168106;58;20984;-70
2021/07/28 09:55:24;;;;;;;4.45;3.00;;;24.10;70.90;;;;;;2168040;58;20984;-71
2021/07/28 09:57:57;;;;;;;4.57;2.90;;;24.30;69.80;;;;;;2167971;58;20983;-69
2021/07/28 10:00:24;;;;;;;4.95;2.97;;;24.30;69.30;;;;;;2167598;58;21809;-69
2021/07/28 10:02:52;;;;;;;4.47;2.90;;;24.40;69.70;;;;;;2167867;58;21556;-72
2021/07/28 10:05:21;;;;;;;4.43;3.03;;;24.50;69.80;;;;;;2167240;58;20979;-70
2021/07/28 10:08:00;;;;;;;5.25;3.10;;;24.60;69.60;;;;;;2209104;57;22048;-69
2021/07/28 10:10:27;;;;;;;4.70;3.03;;;24.60;69.70;;;;;;2186287;58;21506;-69
2021/07/28 10:12:53;;;;;;;4.65;2.58;;;24.80;69.50;;;;;;2173628;58;20980;-69
2021/07/28 10:15:22;;;;;;;4.15;2.80;;;24.80;69.90;;;;;;2167325;58;21016;-68
2021/07/28 10:17:50;;;;;;;4.22;2.35;;;25.00;70.10;;;;;;2378272;57;21039;-71
2021/07/28 10:20:16;;;;;;;4.72;2.92;;;25.00;70.10;;;;;;2189894;57;20974;-71
2021/07/28 10:22:43;;;;;;;5.82;2.90;;;25.20;70.00;;;;;;2381057;57;21047;-70
2021/07/28 10:25:15;;;;;;;4.32;2.80;;;25.20;70.00;;;;;;2185639;58;20998;-71
2021/07/28 10:27:49;;;;;;;3.90;2.33;;;25.30;68.90;;;;;;2173986;58;21007;-70
2021/07/28 10:30:18;;;;;;;5.85;2.90;;;25.40;69.50;;;;;;2173347;58;20943;-72
2021/07/28 10:32:45;;;;;;;7.18;3.22;;;25.50;69.20;;;;;;2181189;58;21011;-71
2021/07/28 10:35:30;;;;;;;4.12;2.65;;;25.60;68.90;;;;;;2167281;58;21047;-71
2021/07/28 10:37:58;;;;;;;4.00;2.62;;;25.70;68.20;;;;;;2172039;58;21058;-71
2021/07/28 10:40:48;;;;;;;6.25;3.05;;;25.80;69.00;;;;;;2181220;58;21316;-70
2021/07/28 10:43:17;;;;;;;4.65;2.92;;;25.90;66.90;;;;;;2248791;57;20983;-70
2021/07/28 10:45:56;;;;;;;4.82;3.30;;;25.90;66.50;;;;;;2192210;58;20962;-70
2021/07/28 10:48:50;;;;;;;5.18;3.25;;;26.00;65.30;;;;;;2186871;57;21062;-70
2021/07/28 10:55:36;;;;;;;5.07;3.40;;;26.10;64.90;;;;;;2167597;58;21790;-69
2021/07/28 10:58:36;;;;;;;7.28;3.37;;;26.20;64.40;;;;;;2167157;58;21058;-70
2021/07/28 11:01:02;;;;;;;5.07;3.20;;;26.30;63.00;;;;;;2235038;57;21058;-68
2021/07/28 11:03:29;;;;;;;4.47;2.60;;;26.30;64.60;;;;;;2218474;57;21026;-70
2021/07/28 11:06:22;;;;;;;4.22;2.70;;;26.30;64.60;;;;;;2246730;57;21047;-68
2021/07/28 11:08:49;;;;;;;4.53;2.65;;;26.30;62.90;;;;;;2186408;58;21090;-70
2021/07/28 11:11:22;;;;;;;4.03;2.70;;;26.30;64.50;;;;;;2174097;58;21075;-71
2021/07/28 11:13:49;;;;;;;4.68;2.90;;;26.40;64.20;;;;;;2180542;58;21399;-70
2021/07/28 11:16:15;;;;;;;4.37;2.60;;;26.40;65.40;;;;;;2375596;57;21014;-69
2021/07/28 11:18:43;;;;;;;4.32;2.55;;;26.50;65.70;;;;;;2166872;58;20956;-71
2021/07/28 11:21:29;;;;;;;4.10;2.70;;;26.60;66.30;;;;;;2176648;58;21005;-70
2021/07/28 11:24:02;;;;;;;4.55;2.92;;;26.70;63.90;;;;;;2321942;57;21036;-72
2021/07/28 11:26:45;;;;;;;5.00;2.70;;;26.70;64.40;;;;;;2186120;58;20998;-70
2021/07/28 11:29:18;;;;;;;3.60;2.20;;;26.80;64.00;;;;;;2167173;58;20955;-72
2021/07/28 11:31:46;;;;;;;3.97;2.47;;;26.90;64.40;;;;;;2192848;58;21039;-68
2021/07/28 11:37:53;;;;;;;3.92;2.62;;;27.10;63.50;;;;;;2188450;58;21829;-76
2021/07/28 11:40:20;;;;;;;4.45;2.85;;;27.10;65.90;;;;;;2198252;57;20967;-75
2021/07/28 11:42:46;;;;;;;3.97;2.72;;;27.20;64.90;;;;;;2240193;57;21000;-78
2021/07/28 11:45:13;;;;;;;5.32;3.20;;;27.30;65.20;;;;;;2186208;58;20969;-72
2021/07/28 11:47:40;;;;;;;5.18;2.80;;;27.30;64.20;;;;;;2166738;58;20971;-73
2021/07/28 11:50:06;;;;;;;4.40;3.00;;;27.40;63.70;;;;;;2209692;57;21047;-72
2021/07/28 11:52:46;;;;;;;4.40;2.90;;;27.40;64.10;;;;;;2211418;57;21856;-72
2021/07/28 11:55:22;;;;;;;4.50;2.85;;;27.50;62.80;;;;;;2309562;57;20995;-71
2021/07/28 11:57:48;;;;;;;3.95;2.53;;;27.50;62.80;;;;;;2173828;58;21096;-72
2021/07/28 12:00:31;;;;;;;4.03;2.65;;;27.60;64.10;;;;;;2179646;58;21564;-74
2021/07/28 12:03:19;;;;;;;;;;;27.70;61.60;;;;;;2169725;58;20991;-73
2021/07/28 12:06:05;;;;;;;5.50;3.10;;;27.70;61.10;;;;;;2166744;58;20423;-73
2021/07/28 12:08:35;;;;;;;4.43;2.60;;;27.70;61.00;;;;;;2166690;58;20959;-72
2021/07/28 12:11:08;;;;;;;4.80;3.28;;;27.70;62.60;;;;;;2387807;57;20954;-72
2021/07/28 12:14:02;;;;;;;4.62;3.30;;;27.70;61.20;;;;;;2199115;57;20959;-73
2021/07/28 12:16:39;;;;;;;5.28;3.10;;;27.70;59.30;;;;;;2168673;58;21027;-72
2021/07/28 12:19:05;;;;;;;4.90;2.97;;;27.70;59.80;;;;;;2386028;57;20979;-71
2021/07/28 12:21:52;;;;;;;4.90;3.22;;;27.60;61.20;;;;;;2173557;58;20940;-72
2021/07/28 12:24:32;;;;;;;5.07;3.22;;;27.60;59.40;;;;;;2388866;57;21122;-70
2021/07/28 12:28:50;;;;;;;4.68;2.97;;;27.60;60.10;;;;;;2166821;58;21069;-72
2021/07/28 12:31:29;;;;;;;4.75;2.85;;;27.60;60.50;;;;;;2166877;58;21558;-72
2021/07/28 12:34:17;;;;;;;4.85;3.37;;;27.60;60.10;;;;;;2184586;58;21506;-72
2021/07/28 12:36:44;;;;;;;4.90;3.15;;;27.60;61.20;;;;;;2383070;57;21024;-71
2021/07/28 12:39:10;;;;;;;5.80;3.37;;;27.70;62.20;;;;;;2289860;57;20979;-76
2021/07/28 12:41:37;;;;;;;4.53;2.87;;;27.70;62.10;;;;;;2167032;58;21621;-76
2021/07/28 12:44:04;;;;;;;4.35;3.25;;;27.80;61.20;;;;;;2167133;58;20992;-71
2021/07/28 12:46:31;;;;;;;5.20;3.33;;;27.80;60.40;;;;;;2375486;57;21011;-73
2021/07/28 12:48:57;;;;;;;4.95;3.05;;;27.80;60.70;;;;;;2168151;58;21015;-71
2021/07/28 12:51:23;;;;;;;4.90;2.90;;;27.80;60.30;;;;;;2375443;57;21040;-70
2021/07/28 12:53:51;;;;;;;4.68;2.70;;;27.80;60.50;;;;;;2185667;58;21050;-70
2021/07/28 12:56:17;;;;;;;7.40;3.30;;;27.90;60.70;;;;;;2171752;58;20959;-73
2021/07/28 12:58:44;;;;;;;6.10;3.30;;;27.90;59.80;;;;;;2180675;58;21028;-71
2021/07/28 13:01:11;;;;;;;4.62;2.95;;;27.80;59.30;;;;;;2382661;57;21087;-69
2021/07/28 13:03:40;;;;;;;4.00;2.70;;;27.80;59.40;;;;;;2176028;58;20964;-73
2021/07/28 13:06:09;;;;;;;4.40;2.75;;;27.80;60.10;;;;;;2383924;57;20995;-71
2021/07/28 13:08:36;;;;;;;5.25;3.25;;;27.80;60.20;;;;;;2179200;58;21146;-70
2021/07/28 13:11:02;;;;;;;4.10;2.65;;;27.90;60.90;;;;;;2387706;57;20988;-73